Airport Name : Pietermaritzburg

Other Name : Pietermaritzburg

ICAO : FAPM

IATA : PZB

FAA :

Latitude : -29.648975

Longitude : 30.398667

Country : South Africa

Local Date and Time : 04 Mar 2021 14:01

 

TAF (Terminal Aerodrome Forecast)

TAF FAPM 040900Z 0410/0421 07005KT CAVOK TX30/0412Z TN18/0421Z PROB30 TEMPO 0411/0415 5000 TSRA BKN020 FEW030CB PROB30 TEMPO 0416/0421 5000 SHRA BKN015 FEW025TCU

 

METAR (METeorological Aerodrome Report)

To Charter a Jet Click here.